EST,Max TemperatureF,Mean TemperatureF,Min TemperatureF,Max Dew PointF,MeanDew PointF,Min DewpointF,Max Humidity, Mean Humidity, Min Humidity, Max Sea Level PressureIn, Mean Sea Level PressureIn, Min Sea Level PressureIn, Max VisibilityMiles, Mean VisibilityMiles, Min VisibilityMiles, Max Wind SpeedMPH, Mean Wind SpeedMPH, Max Gust SpeedMPH,PrecipitationIn, CloudCover, Events, WindDirDegrees
2012-1-1,86,80,75,75,70,64,94,71,51,29.89,29.82,29.77,6,6,2,23,12,,0.00,2,Rain,151
2012-1-2,87,81,75,70,67,63,78,64,46,29.92,29.87,29.83,6,6,6,21,11,,0.00,2,Rain,152
2012-1-3,87,78,69,70,67,64,88,69,46,29.92,29.89,29.86,6,6,6,21,11,,0.00,3,Rain,146
2012-1-4,87,79,71,72,69,66,100,73,49,29.95,29.88,29.83,6,6,2,17,9,,0.00,3,Rain,158
2012-1-5,91,81,71,72,65,54,94,64,29,29.92,29.86,29.77,6,6,3,15,8,,0.00,2,Rain,146
2012-1-6,86,77,68,72,67,63,94,73,55,29.89,29.84,29.80,6,6,6,15,5,,0.00,1,,72
2012-1-7,87,79,71,73,71,68,100,76,52,29.89,29.85,29.80,6,6,6,12,3,,0.00,1,,73
2012-1-8,87,80,73,73,71,68,94,73,55,29.89,29.84,29.77,6,6,6,15,5,,0.00,2,,114
2012-1-9,86,80,73,73,72,72,94,77,66,29.86,29.80,29.74,6,6,6,10,3,,0.00,3,,13
2012-1-10,86,80,73,75,73,72,94,78,62,29.80,29.76,29.71,6,6,6,12,4,,0.00,2,,354
2012-1-11,87,81,75,73,72,68,89,73,55,29.83,29.77,29.71,6,6,6,13,5,,0.00,3,,330
2012-1-12,87,80,73,73,72,72,100,76,62,29.83,29.77,29.71,6,6,6,13,4,,0.00,3,,18
2012-1-13,87,80,73,73,72,70,100,73,58,29.83,29.78,29.74,6,6,6,10,4,,0.00,5,,81
2012-1-14,86,82,77,75,72,66,94,74,55,29.80,29.76,29.68,6,6,6,10,5,,0.00,5,Rain,349
2012-1-15,89,82,75,77,75,73,100,80,66,29.77,29.71,29.62,6,5,1,13,5,,0.00,5,Rain-Thunderstorm,7
2012-1-16,86,80,73,75,73,70,100,81,62,29.80,29.74,29.71,6,6,3,10,6,,0.00,6,Rain,163
2012-1-17,87,81,75,75,73,72,100,78,58,29.86,29.79,29.71,6,6,2,14,7,,0.00,6,Rain,138
2012-1-18,87,81,75,77,74,72,94,83,62,29.86,29.80,29.74,6,6,2,15,8,,0.00,6,Rain,160
2012-1-19,87,80,73,75,73,70,100,79,55,29.86,29.79,29.71,6,6,1,13,7,,0.00,6,Rain,156
2012-1-20,89,81,73,81,74,70,100,81,55,29.83,29.75,29.68,6,5,1,17,9,,0.00,6,Rain,152
2012-1-21,84,80,75,79,75,73,100,87,70,29.80,29.73,29.68,6,5,1,15,7,,0.00,5,Rain,178
2012-1-22,89,83,77,77,75,72,94,79,59,29.80,29.75,29.71,6,6,2,17,9,,0.00,5,Rain,148
2012-1-23,87,81,75,77,74,72,100,81,66,29.77,29.72,29.65,6,6,4,16,7,,0.00,6,Rain-Thunderstorm,67
2012-1-24,86,80,73,77,75,73,100,88,70,29.74,29.68,29.59,6,5,1,13,6,,0.00,5,Rain-Thunderstorm,155
2012-1-25,86,80,73,79,75,72,100,89,74,29.71,29.64,29.59,6,6,0,14,5,25,0.00,6,Rain-Thunderstorm,302
2012-1-26,87,82,77,77,74,70,100,81,66,29.74,29.67,29.62,6,6,3,10,5,,0.00,6,Rain-Thunderstorm,308
2012-1-27,87,82,77,79,76,72,94,81,70,29.71,29.65,29.59,6,6,6,16,7,,0.00,6,Rain-Thunderstorm,329
2012-1-28,89,83,77,81,76,72,100,83,62,29.65,29.59,29.53,6,6,1,22,6,,0.00,5,Rain-Thunderstorm,328
2012-1-29,95,85,75,81,76,72,94,79,49,29.65,29.59,29.53,6,6,2,17,7,,0.00,6,Rain,298
2012-1-30,91,84,78,81,78,73,100,82,59,29.65,29.60,29.53,6,6,4,13,3,,0.00,5,Rain,23
2012-1-31,91,84,78,79,77,75,94,81,59,29.62,29.57,29.50,6,6,3,15,6,,0.00,5,Rain,123